Time;durP1;ratioP1;P1;durP2;ratioP2;P2;SDS_P1;SDS_P2;PMS_P1;PMS_P2;Temp;Humidity;BMP_temperature;BMP_pressure;BME280_temperature;BME280_humidity;BME280_pressure;Samples;Min_cycle;Max_cycle;Signal;HPM_P1;HPM_P2
2021/08/14 00:00:23;;;;;;;6.72;4.93;;;21.60;1.00;;;;;;5104589;27;20062;-74
2021/08/14 00:03:11;;;;;;;11.00;5.65;;;21.50;1.00;;;;;;5111324;27;20039;-74
2021/08/14 00:06:00;;;;;;;9.48;5.97;;;21.30;1.00;;;;;;5113104;27;20050;-73
2021/08/14 00:08:48;;;;;;;6.75;5.47;;;21.20;1.00;;;;;;5106272;27;20042;-75
2021/08/14 00:11:36;;;;;;;7.80;5.30;;;21.20;1.00;;;;;;5112435;27;20124;-74
2021/08/14 00:14:26;;;;;;;8.20;5.72;;;21.20;1.00;;;;;;5115473;27;20519;-74
2021/08/14 00:17:15;;;;;;;9.68;5.95;;;21.10;1.00;;;;;;5114678;27;20039;-75
2021/08/14 00:20:04;;;;;;;7.25;5.60;;;21.00;1.00;;;;;;5111110;27;20047;-75
2021/08/14 00:22:53;;;;;;;7.68;6.15;;;21.10;1.00;;;;;;5111128;27;20221;-74
2021/08/14 00:25:42;;;;;;;9.18;6.35;;;21.10;1.00;;;;;;5112290;27;20046;-75
2021/08/14 00:28:30;;;;;;;9.75;5.65;;;21.10;1.00;;;;;;5095275;27;20770;-74
2021/08/14 00:31:20;;;;;;;8.25;6.47;;;21.00;1.00;;;;;;5110340;27;20482;-76
2021/08/14 00:34:09;;;;;;;12.07;6.10;;;21.00;1.00;;;;;;5095781;27;20035;-74
2021/08/14 00:36:57;;;;;;;8.85;6.07;;;20.90;1.00;;;;;;5107883;27;20048;-74
2021/08/14 00:39:45;;;;;;;8.13;5.88;;;20.90;1.00;;;;;;5109862;27;20070;-74
2021/08/14 00:42:34;;;;;;;9.88;6.03;;;20.80;1.00;;;;;;5097537;27;20074;-74
2021/08/14 00:45:22;;;;;;;7.47;5.70;;;20.80;1.00;;;;;;5106746;27;20505;-74
2021/08/14 00:48:12;;;;;;;8.57;5.93;;;20.80;1.00;;;;;;5110303;27;20050;-74
2021/08/14 00:51:00;;;;;;;10.02;6.35;;;20.70;1.00;;;;;;5109035;27;20040;-74
2021/08/14 00:53:49;;;;;;;8.32;5.80;;;20.70;1.20;;;;;;5115114;27;20039;-74
2021/08/14 00:56:38;;;;;;;10.00;6.60;;;20.70;1.30;;;;;;5106625;27;20054;-74
2021/08/14 00:59:29;;;;;;;8.18;6.57;;;20.60;1.60;;;;;;5101843;28;20043;-74
2021/08/14 01:02:20;;;;;;;8.57;6.45;;;20.50;2.90;;;;;;5101069;27;20044;-74
2021/08/14 01:05:12;;;;;;;11.43;6.63;;;20.40;3.50;;;;;;5108340;27;20035;-74
2021/08/14 01:08:01;;;;;;;9.18;6.25;;;20.50;3.60;;;;;;5108127;27;20406;-74
2021/08/14 01:10:51;;;;;;;12.25;6.22;;;20.50;3.70;;;;;;5089482;28;20154;-74
2021/08/14 01:13:39;;;;;;;9.43;6.28;;;20.50;3.70;;;;;;5103961;27;20083;-74
2021/08/14 01:16:29;;;;;;;10.48;6.03;;;20.40;3.60;;;;;;5102920;27;20044;-74
2021/08/14 01:19:20;;;;;;;9.27;6.43;;;20.40;3.90;;;;;;5099915;28;20134;-74
2021/08/14 01:22:13;;;;;;;8.18;6.03;;;20.20;5.10;;;;;;5106229;28;20444;-74
2021/08/14 01:25:03;;;;;;;7.75;5.95;;;20.10;6.20;;;;;;5096705;28;20040;-74
2021/08/14 01:27:54;;;;;;;11.27;6.55;;;20.10;6.70;;;;;;5102859;28;20050;-74
2021/08/14 01:30:43;;;;;;;7.13;6.10;;;20.00;7.20;;;;;;5102724;28;20032;-73
2021/08/14 01:33:33;;;;;;;7.70;6.13;;;20.00;7.20;;;;;;5107783;27;20050;-73
2021/08/14 01:36:22;;;;;;;8.90;6.22;;;20.00;7.30;;;;;;5084621;27;20124;-73
2021/08/14 01:39:14;;;;;;;10.68;6.25;;;19.90;7.60;;;;;;5103656;27;20779;-73
2021/08/14 01:42:05;;;;;;;10.13;6.20;;;19.90;8.40;;;;;;5110317;27;20073;-74
2021/08/14 01:44:55;;;;;;;11.45;7.47;;;19.70;9.50;;;;;;5108071;27;20039;-75
2021/08/14 01:47:44;;;;;;;10.52;6.18;;;19.60;10.70;;;;;;5109735;27;20051;-74
2021/08/14 01:50:32;;;;;;;9.55;6.20;;;19.70;10.70;;;;;;5090927;27;20774;-75
2021/08/14 01:53:20;;;;;;;10.35;6.47;;;19.60;10.80;;;;;;5108418;27;20051;-75
2021/08/14 01:56:09;;;;;;;8.65;6.10;;;19.60;11.80;;;;;;5103941;27;20043;-75
2021/08/14 01:58:57;;;;;;;10.90;7.00;;;19.60;12.50;;;;;;5103361;28;20116;-75
2021/08/14 02:01:47;;;;;;;8.60;6.53;;;19.60;11.20;;;;;;5102071;27;20065;-75
2021/08/14 02:04:36;;;;;;;12.50;6.60;;;19.60;10.70;;;;;;5106195;27;20064;-75
2021/08/14 02:07:25;;;;;;;9.50;6.55;;;19.70;10.70;;;;;;5099340;28;20050;-75
2021/08/14 02:10:13;;;;;;;8.82;6.50;;;19.70;10.70;;;;;;5096196;27;20047;-75
2021/08/14 02:13:01;;;;;;;9.65;6.97;;;19.70;10.70;;;;;;5108549;27;20054;-74
2021/08/14 02:15:50;;;;;;;8.70;6.38;;;19.70;10.70;;;;;;5107091;27;20414;-74
2021/08/14 02:18:40;;;;;;;8.55;6.72;;;19.50;11.50;;;;;;5106174;27;20043;-74
2021/08/14 02:21:29;;;;;;;9.15;6.15;;;19.20;14.10;;;;;;5105917;28;20039;-76
2021/08/14 02:24:17;;;;;;;8.73;6.47;;;19.20;15.00;;;;;;5112073;28;20169;-74
2021/08/14 02:27:06;;;;;;;10.60;6.40;;;19.20;15.90;;;;;;5092783;28;20130;-74
2021/08/14 02:29:54;;;;;;;9.35;6.40;;;19.00;16.30;;;;;;5106943;28;20120;-75
2021/08/14 02:32:42;;;;;;;8.98;6.70;;;19.00;17.60;;;;;;5110661;28;20076;-74
2021/08/14 02:35:32;;;;;;;12.57;6.45;;;18.90;18.50;;;;;;5108873;27;20047;-75
2021/08/14 02:38:23;;;;;;;10.93;6.70;;;19.00;18.60;;;;;;5114645;28;20069;-74
2021/08/14 02:41:12;;;;;;;7.03;6.30;;;19.00;18.50;;;;;;5107181;28;20047;-74
2021/08/14 02:44:00;;;;;;;9.98;7.00;;;19.10;17.70;;;;;;5106746;28;20225;-74
2021/08/14 02:46:48;;;;;;;9.23;6.47;;;19.20;17.00;;;;;;5104646;28;20138;-75
2021/08/14 02:49:37;;;;;;;10.80;7.32;;;19.20;15.90;;;;;;5104100;28;20171;-74
2021/08/14 02:52:26;;;;;;;9.55;7.28;;;19.40;14.70;;;;;;5116681;28;20047;-74
2021/08/14 02:55:15;;;;;;;11.02;7.10;;;19.40;14.20;;;;;;5109514;28;20036;-74
2021/08/14 02:58:03;;;;;;;8.63;7.00;;;19.50;14.30;;;;;;5100884;28;20050;-74
2021/08/14 03:00:52;;;;;;;10.60;7.38;;;19.50;14.40;;;;;;5090074;27;20051;-74
2021/08/14 03:03:40;;;;;;;15.52;9.50;;;19.50;14.90;;;;;;5103272;27;20065;-74
2021/08/14 03:06:29;;;;;;;14.30;9.15;;;19.40;14.60;;;;;;5114192;27;20054;-74
2021/08/14 03:09:19;;;;;;;12.52;8.13;;;19.40;15.20;;;;;;5101721;28;20036;-74
2021/08/14 03:12:07;;;;;;;9.73;7.75;;;19.50;15.30;;;;;;5110944;27;20051;-74
2021/08/14 03:14:56;;;;;;;11.73;7.50;;;19.40;15.50;;;;;;5116665;27;20043;-74
2021/08/14 03:17:45;;;;;;;10.48;7.60;;;19.40;15.80;;;;;;5102436;27;20105;-74
2021/08/14 03:20:33;;;;;;;11.57;7.65;;;19.40;16.20;;;;;;5110606;27;20036;-74
2021/08/14 03:23:22;;;;;;;9.48;7.10;;;19.30;16.40;;;;;;5092939;27;20050;-75
2021/08/14 03:26:11;;;;;;;10.00;7.32;;;19.20;17.30;;;;;;5107375;27;20185;-74
2021/08/14 03:29:00;;;;;;;10.95;7.53;;;19.20;17.50;;;;;;5108350;27;20119;-74
2021/08/14 03:31:49;;;;;;;7.97;6.53;;;19.10;17.60;;;;;;5099600;27;20051;-74
2021/08/14 03:34:38;;;;;;;10.63;7.55;;;19.10;17.70;;;;;;5082176;27;20043;-74
2021/08/14 03:37:26;;;;;;;10.45;7.95;;;19.00;17.90;;;;;;5115668;27;20055;-74
2021/08/14 03:40:15;;;;;;;12.02;7.55;;;18.90;19.20;;;;;;5110439;27;20061;-75
2021/08/14 03:43:05;;;;;;;9.07;7.13;;;18.70;21.00;;;;;;5111798;27;20047;-74
2021/08/14 03:45:54;;;;;;;10.23;6.85;;;18.70;21.40;;;;;;5094809;27;20048;-74
2021/08/14 03:48:42;;;;;;;8.75;7.38;;;18.60;22.60;;;;;;5112738;27;20090;-74
2021/08/14 03:51:31;;;;;;;9.85;7.38;;;18.50;23.00;;;;;;5098461;27;20077;-74
2021/08/14 03:54:19;;;;;;;10.00;7.32;;;18.40;24.60;;;;;;5113585;27;20046;-74
2021/08/14 03:57:07;;;;;;;11.23;8.30;;;18.30;25.40;;;;;;5111168;27;20039;-74
2021/08/14 03:59:57;;;;;;;13.05;7.60;;;18.10;27.60;;;;;;5106907;27;20162;-74
2021/08/14 04:02:46;;;;;;;10.73;7.60;;;18.20;28.10;;;;;;5113536;27;20044;-74
2021/08/14 04:05:35;;;;;;;9.43;7.60;;;18.10;29.10;;;;;;5110050;27;20040;-74
2021/08/14 04:08:23;;;;;;;10.55;7.78;;;18.20;29.00;;;;;;5112805;27;20031;-74
2021/08/14 04:11:12;;;;;;;9.63;8.15;;;18.10;30.00;;;;;;5111206;27;20051;-74
2021/08/14 04:14:00;;;;;;;11.02;8.13;;;18.00;31.50;;;;;;5107177;27;21079;-74
2021/08/14 04:16:50;;;;;;;10.75;7.38;;;18.10;31.20;;;;;;5114852;27;20122;-74
2021/08/14 04:19:38;;;;;;;9.70;7.57;;;18.10;31.30;;;;;;5109894;27;20441;-74
2021/08/14 04:22:26;;;;;;;10.65;8.00;;;18.20;30.80;;;;;;5098110;28;20052;-74
2021/08/14 04:25:15;;;;;;;9.73;8.15;;;18.20;30.60;;;;;;5089010;28;20055;-74
2021/08/14 04:28:03;;;;;;;9.48;7.45;;;18.20;30.50;;;;;;5112387;27;20054;-74
2021/08/14 04:30:53;;;;;;;9.35;7.75;;;18.30;29.70;;;;;;5106476;27;20090;-74
2021/08/14 04:33:43;;;;;;;12.15;8.02;;;18.70;28.00;;;;;;5109207;27;20066;-75
2021/08/14 04:36:31;;;;;;;15.07;9.30;;;19.20;24.00;;;;;;5108398;27;20619;-75
2021/08/14 04:39:19;;;;;;;16.73;8.85;;;19.70;20.10;;;;;;5103333;27;20031;-75
2021/08/14 04:42:08;;;;;;;12.57;8.80;;;20.40;14.90;;;;;;5112514;27;20071;-75
2021/08/14 04:44:56;;;;;;;12.35;8.85;;;20.70;10.70;;;;;;5110921;27;20122;-75
2021/08/14 04:47:45;;;;;;;10.88;8.35;;;21.20;8.00;;;;;;5107074;27;20154;-75
2021/08/14 04:50:34;;;;;;;13.82;8.63;;;21.40;4.90;;;;;;5106508;27;20039;-75
2021/08/14 04:53:23;;;;;;;14.23;8.27;;;21.50;4.90;;;;;;5109650;27;20494;-75
2021/08/14 04:56:11;;;;;;;13.40;8.30;;;21.80;3.30;;;;;;5116508;27;20395;-75
2021/08/14 04:59:00;;;;;;;12.65;8.38;;;22.20;1.00;;;;;;5110509;27;20442;-75
2021/08/14 05:01:48;;;;;;;12.82;8.82;;;22.50;1.00;;;;;;5087897;27;20039;-75
2021/08/14 05:04:37;;;;;;;11.20;8.80;;;22.40;1.00;;;;;;5112437;27;20056;-75
2021/08/14 05:07:28;;;;;;;14.45;7.78;;;23.30;1.00;;;;;;5113002;27;20047;-75
2021/08/14 05:10:17;;;;;;;10.30;8.23;;;23.20;1.00;;;;;;5111441;27;20047;-75
2021/08/14 05:13:05;;;;;;;11.25;8.70;;;23.30;1.00;;;;;;5114860;27;20494;-75
2021/08/14 05:15:53;;;;;;;10.75;8.02;;;23.50;1.00;;;;;;5107637;27;20047;-75
2021/08/14 05:18:42;;;;;;;10.38;8.30;;;23.40;1.00;;;;;;5108438;27;20901;-73
2021/08/14 05:21:30;;;;;;;13.45;9.15;;;23.60;1.00;;;;;;5102074;27;20751;-74
2021/08/14 05:24:20;;;;;;;14.45;9.30;;;24.10;1.00;;;;;;5115847;27;20051;-74
2021/08/14 05:27:08;;;;;;;12.23;9.02;;;24.10;1.00;;;;;;5110092;27;20043;-73
2021/08/14 05:29:57;;;;;;;18.08;9.73;;;24.10;1.00;;;;;;5107726;27;20041;-73
2021/08/14 05:32:45;;;;;;;12.52;8.77;;;24.30;1.00;;;;;;5115571;27;20040;-74
2021/08/14 05:35:34;;;;;;;12.40;8.57;;;23.20;1.00;;;;;;5085301;27;20059;-75
2021/08/14 05:38:22;;;;;;;13.02;8.85;;;24.10;1.00;;;;;;5109365;27;20048;-73
2021/08/14 05:41:12;;;;;;;12.27;9.02;;;24.20;1.00;;;;;;5104044;27;20051;-75
2021/08/14 05:44:00;;;;;;;11.50;9.32;;;24.30;1.00;;;;;;5110240;27;20177;-75
2021/08/14 05:46:50;;;;;;;13.88;9.18;;;24.70;1.00;;;;;;5108057;27;20130;-75
2021/08/14 05:49:38;;;;;;;12.98;8.73;;;24.70;1.00;;;;;;5108867;27;20410;-75
2021/08/14 05:52:27;;;;;;;13.30;9.05;;;22.70;1.00;;;;;;5100617;27;20059;-75
2021/08/14 05:55:16;;;;;;;13.02;9.02;;;22.00;1.00;;;;;;5107958;27;20055;-75
2021/08/14 05:58:05;;;;;;;12.18;8.90;;;21.70;3.50;;;;;;5115641;27;20051;-75
2021/08/14 06:00:54;;;;;;;14.45;8.13;;;21.50;4.40;;;;;;5108362;27;20052;-75
2021/08/14 06:03:42;;;;;;;12.68;9.00;;;21.60;5.60;;;;;;5102390;27;20047;-75
2021/08/14 06:06:31;;;;;;;14.38;9.27;;;21.50;5.30;;;;;;5107392;27;20097;-73
2021/08/14 06:09:19;;;;;;;16.52;8.43;;;21.70;4.50;;;;;;5102952;27;20063;-73
2021/08/14 06:12:10;;;;;;;12.40;7.68;;;21.70;5.40;;;;;;5110690;27;20116;-74
2021/08/14 06:15:00;;;;;;;13.77;8.63;;;21.80;5.30;;;;;;5111623;27;20035;-74
2021/08/14 06:17:48;;;;;;;13.80;8.35;;;21.80;4.60;;;;;;5111385;27;20711;-74
2021/08/14 06:20:36;;;;;;;10.45;7.80;;;22.00;3.50;;;;;;5105080;27;20495;-74
2021/08/14 06:23:25;;;;;;;12.52;8.25;;;22.30;3.30;;;;;;5111915;27;20043;-74
2021/08/14 06:26:13;;;;;;;9.90;8.43;;;22.30;3.00;;;;;;5111115;27;20126;-74
2021/08/14 06:29:02;;;;;;;11.57;9.02;;;22.40;2.10;;;;;;5104314;28;20047;-74
2021/08/14 06:31:51;;;;;;;9.70;8.50;;;22.50;1.60;;;;;;5107166;28;20414;-74
2021/08/14 06:34:40;;;;;;;12.93;8.60;;;22.60;1.20;;;;;;5109107;28;20051;-74
2021/08/14 06:37:28;;;;;;;11.90;8.30;;;22.60;1.20;;;;;;5108404;28;20139;-74
2021/08/14 06:40:16;;;;;;;12.85;8.77;;;22.80;1.30;;;;;;5099468;28;20047;-74
2021/08/14 06:43:05;;;;;;;12.70;8.15;;;22.40;1.10;;;;;;5097737;28;20251;-74
2021/08/14 06:45:53;;;;;;;9.52;7.97;;;22.60;1.70;;;;;;5106322;28;20054;-74
2021/08/14 06:48:43;;;;;;;14.88;9.20;;;22.90;1.00;;;;;;5106739;28;20096;-75
2021/08/14 06:51:31;;;;;;;11.30;8.73;;;22.60;1.30;;;;;;5110392;27;20106;-74
2021/08/14 06:54:20;;;;;;;12.50;8.45;;;22.80;1.00;;;;;;5109143;28;20379;-74
2021/08/14 06:57:08;;;;;;;13.15;9.27;;;23.20;1.00;;;;;;5106469;28;20051;-74
2021/08/14 06:59:57;;;;;;;17.50;9.50;;;23.20;1.00;;;;;;5101428;28;20040;-75
2021/08/14 07:02:46;;;;;;;12.43;8.75;;;23.00;1.00;;;;;;5112528;28;20051;-74
2021/08/14 07:05:38;;;;;;;10.90;8.15;;;23.10;1.00;;;;;;5106684;28;20048;-74
2021/08/14 07:08:27;;;;;;;10.27;8.13;;;23.10;1.00;;;;;;5107024;27;20043;-74
2021/08/14 07:11:16;;;;;;;9.50;7.78;;;23.80;1.00;;;;;;5104632;27;20035;-74
2021/08/14 07:14:04;;;;;;;10.48;7.18;;;23.80;1.00;;;;;;5107215;28;20558;-74
2021/08/14 07:16:53;;;;;;;9.35;7.18;;;23.50;1.00;;;;;;5109238;28;20161;-74
2021/08/14 07:19:41;;;;;;;10.82;7.28;;;23.60;1.00;;;;;;5107194;28;20043;-75
2021/08/14 07:22:31;;;;;;;9.85;7.15;;;23.80;1.00;;;;;;5107141;28;20479;-75
2021/08/14 07:25:19;;;;;;;10.95;7.70;;;24.00;1.00;;;;;;5112740;28;20050;-75
2021/08/14 07:28:07;;;;;;;10.15;6.85;;;24.40;1.00;;;;;;5108892;28;20109;-74
2021/08/14 07:30:56;;;;;;;8.23;7.07;;;24.90;1.00;;;;;;5103666;28;20120;-75
2021/08/14 07:33:44;;;;;;;12.20;6.50;;;25.10;1.00;;;;;;5096136;28;20047;-75
2021/08/14 07:36:33;;;;;;;11.20;6.35;;;25.00;1.00;;;;;;5100502;28;20138;-75
2021/08/14 07:39:23;;;;;;;10.32;6.90;;;24.70;1.00;;;;;;5100559;28;20529;-74
2021/08/14 07:42:11;;;;;;;10.65;6.95;;;24.80;1.00;;;;;;5100690;28;20040;-74
2021/08/14 07:44:59;;;;;;;10.95;7.00;;;25.10;1.00;;;;;;5108544;27;20428;-75
2021/08/14 07:47:50;;;;;;;12.30;7.32;;;25.00;1.00;;;;;;5107463;28;20047;-75
2021/08/14 07:50:38;;;;;;;11.85;7.40;;;25.00;1.00;;;;;;5091881;27;20047;-74
2021/08/14 07:53:27;;;;;;;10.95;7.75;;;25.40;1.00;;;;;;5116675;27;20059;-75
2021/08/14 07:56:16;;;;;;;9.82;6.93;;;25.70;1.00;;;;;;5112674;27;20053;-75
2021/08/14 07:59:05;;;;;;;7.38;6.13;;;25.50;1.00;;;;;;5108984;27;20051;-74
2021/08/14 08:01:53;;;;;;;8.20;6.60;;;25.30;1.00;;;;;;5112515;27;20418;-74
2021/08/14 08:04:41;;;;;;;10.75;6.70;;;25.40;1.00;;;;;;5113995;27;20384;-75
2021/08/14 08:07:30;;;;;;;8.25;6.13;;;25.20;1.00;;;;;;5112343;27;20390;-75
2021/08/14 08:10:20;;;;;;;10.35;6.68;;;25.70;1.00;;;;;;5107324;27;20502;-74
2021/08/14 08:13:10;;;;;;;7.53;6.43;;;25.80;1.00;;;;;;5113983;27;20035;-75
2021/08/14 08:15:58;;;;;;;8.90;6.03;;;25.50;1.00;;;;;;5099614;27;20055;-74
2021/08/14 08:18:47;;;;;;;8.07;6.20;;;25.50;1.00;;;;;;5101570;27;20047;-74
2021/08/14 08:21:35;;;;;;;11.70;6.40;;;25.80;1.00;;;;;;5116145;27;20110;-74
2021/08/14 08:24:24;;;;;;;7.97;5.80;;;25.90;1.00;;;;;;5105427;27;20429;-74
2021/08/14 08:27:12;;;;;;;7.63;5.90;;;26.30;1.00;;;;;;5110815;27;20044;-74
2021/08/14 08:30:02;;;;;;;9.73;6.13;;;26.40;1.00;;;;;;5108935;27;20168;-74
2021/08/14 08:32:50;;;;;;;8.18;6.18;;;26.40;1.00;;;;;;5094758;27;20620;-74
2021/08/14 08:35:40;;;;;;;6.57;5.22;;;26.60;1.00;;;;;;5114810;27;20050;-74
2021/08/14 08:38:28;;;;;;;26.90;21.35;;;26.90;1.00;;;;;;5106400;27;20048;-74
2021/08/14 08:41:18;;;;;;;9.38;5.78;;;26.70;1.00;;;;;;5107814;27;20487;-74
2021/08/14 08:44:06;;;;;;;6.35;5.70;;;26.80;1.00;;;;;;5112810;27;20115;-75
2021/08/14 08:46:57;;;;;;;7.68;5.88;;;27.00;1.00;;;;;;5091812;27;20059;-74
2021/08/14 08:49:52;;;;;;;8.38;5.70;;;26.80;1.00;;;;;;5105623;27;20045;-74
2021/08/14 08:52:44;;;;;;;8.10;6.00;;;27.20;1.00;;;;;;5113377;27;20043;-74
2021/08/14 08:55:33;;;;;;;6.57;5.35;;;26.80;1.00;;;;;;5109062;27;20295;-75
2021/08/14 08:58:22;;;;;;;7.22;5.40;;;27.10;1.00;;;;;;5108863;27;20183;-75
2021/08/14 09:01:10;;;;;;;6.53;5.57;;;27.30;1.00;;;;;;5114240;27;20209;-75
2021/08/14 09:04:26;;;;;;;9.13;6.20;;;27.10;1.00;;;;;;5111333;27;20074;-75
2021/08/14 09:07:28;;;;;;;7.75;6.15;;;27.30;1.00;;;;;;5105535;27;20062;-74
2021/08/14 09:10:19;;;;;;;8.13;5.95;;;26.80;1.00;;;;;;5104292;27;20423;-74
2021/08/14 09:13:13;;;;;;;8.48;5.63;;;27.30;1.00;;;;;;5094529;27;20117;-75
2021/08/14 09:16:23;;;;;;;9.95;5.68;;;27.60;1.00;;;;;;5110130;27;20233;-75
2021/08/14 09:19:22;;;;;;;9.73;5.80;;;27.00;1.00;;;;;;5104690;27;20051;-75
2021/08/14 09:22:20;;;;;;;;;;;27.20;1.00;;;;;;5111950;27;20122;-75
2021/08/14 09:25:26;;;;;;;7.45;6.00;;;27.70;1.00;;;;;;5108376;27;20006;-72
2021/08/14 09:28:16;;;;;;;7.28;6.13;;;28.20;1.00;;;;;;5107165;27;20097;-75
2021/08/14 09:31:05;;;;;;;8.50;5.15;;;28.20;1.00;;;;;;5103608;27;20035;-73
2021/08/14 09:34:14;;;;;;;7.25;5.82;;;28.00;1.00;;;;;;5110362;27;20292;-74
2021/08/14 09:37:04;;;;;;;7.63;5.22;;;28.20;1.00;;;;;;5106150;27;20043;-73
2021/08/14 09:39:57;;;;;;;8.20;5.63;;;27.40;1.00;;;;;;5110596;27;20129;-75
2021/08/14 09:42:52;;;;;;;6.75;5.50;;;27.40;1.00;;;;;;5101033;28;20035;-75
2021/08/14 09:45:54;;;;;;;6.82;5.05;;;27.30;1.00;;;;;;5103861;27;20075;-75
2021/08/14 09:48:54;;;;;;;6.25;5.40;;;27.90;1.00;;;;;;5108725;27;20395;-75
2021/08/14 09:51:42;;;;;;;6.85;5.38;;;28.10;1.00;;;;;;5087797;28;20406;-75
2021/08/14 09:54:37;;;;;;;10.43;5.80;;;28.00;1.00;;;;;;5101039;28;20043;-72
2021/08/14 09:57:27;;;;;;;7.07;5.63;;;28.40;1.00;;;;;;5101412;28;20047;-75
2021/08/14 10:00:16;;;;;;;8.82;5.38;;;28.40;1.00;;;;;;5099366;28;20051;-75
2021/08/14 10:03:05;;;;;;;6.07;5.18;;;28.10;1.00;;;;;;5104993;27;20417;-75
2021/08/14 10:05:54;;;;;;;6.07;5.05;;;28.30;1.00;;;;;;5100234;27;20109;-74
2021/08/14 10:08:43;;;;;;;7.00;5.15;;;28.80;1.00;;;;;;5107467;27;20058;-74
2021/08/14 10:11:32;;;;;;;8.55;5.70;;;28.10;1.00;;;;;;5105899;27;20085;-74
2021/08/14 10:14:22;;;;;;;8.38;4.90;;;28.60;1.00;;;;;;5112093;27;20047;-74
2021/08/14 10:17:11;;;;;;;8.23;5.05;;;28.90;1.00;;;;;;5107223;27;20418;-75
2021/08/14 10:20:00;;;;;;;8.45;5.93;;;28.30;1.00;;;;;;5097330;27;20054;-74
2021/08/14 10:22:57;;;;;;;8.27;5.38;;;28.60;1.00;;;;;;5114926;27;20040;-74
2021/08/14 10:25:47;;;;;;;9.98;5.28;;;28.80;1.00;;;;;;5105449;27;20051;-75
2021/08/14 10:28:46;;;;;;;8.93;5.30;;;29.00;1.00;;;;;;5115171;27;20093;-74
2021/08/14 10:31:48;;;;;;;6.63;5.85;;;29.20;1.00;;;;;;5105926;27;20073;-74
2021/08/14 10:34:37;;;;;;;7.50;5.80;;;29.40;1.00;;;;;;5110410;27;20422;-74
2021/08/14 10:37:34;;;;;;;6.82;6.13;;;29.00;1.00;;;;;;5103558;28;20055;-74
2021/08/14 10:40:22;;;;;;;9.15;5.90;;;29.00;1.00;;;;;;5091160;28;20062;-75
2021/08/14 10:43:11;;;;;;;12.85;6.35;;;28.20;1.00;;;;;;5103453;28;20090;-75
2021/08/14 10:46:38;;;;;;;7.63;5.45;;;28.00;1.00;;;;;;5112180;28;20043;-75
2021/08/14 10:49:46;;;;;;;6.05;5.45;;;28.20;1.00;;;;;;5109982;28;20107;-76
2021/08/14 10:52:36;;;;;;;9.35;6.05;;;28.70;1.00;;;;;;5106266;28;20047;-74
2021/08/14 10:55:34;;;;;;;7.18;5.82;;;29.10;1.00;;;;;;5108548;28;20047;-74
2021/08/14 10:58:25;;;;;;;6.60;5.18;;;29.00;1.00;;;;;;5109071;28;20047;-75
2021/08/14 11:01:33;;;;;;;5.85;5.25;;;28.80;1.00;;;;;;5107728;28;20071;-74
2021/08/14 11:04:34;;;;;;;6.97;5.57;;;29.30;1.00;;;;;;5113444;28;20846;-74
2021/08/14 11:07:34;;;;;;;8.63;5.30;;;29.10;1.00;;;;;;5107799;28;20055;-75
2021/08/14 11:10:33;;;;;;;7.88;5.90;;;29.40;1.00;;;;;;5105575;27;20063;-74
2021/08/14 11:14:08;;;;;;;8.88;6.03;;;28.90;1.00;;;;;;5100908;28;20052;-75
2021/08/14 11:17:00;;;;;;;12.73;5.88;;;28.50;1.00;;;;;;5103536;28;20044;-74
2021/08/14 11:19:52;;;;;;;7.25;5.15;;;28.60;1.00;;;;;;5101206;27;20059;-75
2021/08/14 11:22:44;;;;;;;9.23;5.70;;;28.30;1.00;;;;;;5111213;27;20043;-75
2021/08/14 11:25:37;;;;;;;7.60;5.50;;;28.40;1.00;;;;;;5104106;27;20048;-74
2021/08/14 11:28:27;;;;;;;6.88;5.50;;;28.80;1.00;;;;;;5103866;27;20067;-75
2021/08/14 11:31:17;;;;;;;6.43;5.55;;;28.40;1.00;;;;;;5105335;27;20058;-75
2021/08/14 11:34:12;;;;;;;7.05;6.18;;;28.60;1.00;;;;;;5107406;27;20093;-74
2021/08/14 11:37:01;;;;;;;7.70;5.90;;;29.40;1.00;;;;;;5105040;27;20146;-75
2021/08/14 11:39:58;;;;;;;7.13;5.63;;;29.70;1.00;;;;;;5103732;27;20573;-75
2021/08/14 11:42:54;;;;;;;7.70;5.65;;;29.10;1.00;;;;;;5108123;27;20121;-74
2021/08/14 11:45:46;;;;;;;13.15;5.35;;;28.70;1.00;;;;;;5104758;27;20051;-74
2021/08/14 11:48:39;;;;;;;6.78;5.90;;;29.50;1.00;;;;;;5106334;27;20043;-74
2021/08/14 11:51:29;;;;;;;7.93;5.70;;;29.30;1.00;;;;;;5107567;27;20109;-75
2021/08/14 11:54:17;;;;;;;7.38;5.60;;;29.30;1.00;;;;;;5105802;27;20134;-74
2021/08/14 11:57:12;;;;;;;5.95;5.15;;;29.10;1.00;;;;;;5098538;27;20062;-74
2021/08/14 12:00:05;;;;;;;6.65;5.40;;;29.70;1.00;;;;;;5100327;27;20043;-75
2021/08/14 12:03:08;;;;;;;6.30;5.50;;;30.10;1.00;;;;;;5073196;27;20093;-74
2021/08/14 12:06:07;;;;;;;9.53;5.57;;;29.70;1.00;;;;;;5090569;27;20043;-75
2021/08/14 12:08:57;;;;;;;7.53;5.75;;;29.90;1.00;;;;;;5103945;27;21094;-76
2021/08/14 12:11:46;;;;;;;9.48;5.47;;;29.50;1.00;;;;;;5105122;27;20402;-76
2021/08/14 12:14:42;;;;;;;9.05;5.85;;;29.30;1.00;;;;;;5111124;27;20457;-75
2021/08/14 12:17:43;;;;;;;7.78;5.53;;;29.10;1.00;;;;;;5108009;27;20217;-75
2021/08/14 12:20:33;;;;;;;7.25;5.80;;;29.50;1.00;;;;;;5105953;27;20039;-75
2021/08/14 12:23:24;;;;;;;8.02;5.75;;;29.60;1.00;;;;;;5115755;27;20061;-75
2021/08/14 12:26:24;;;;;;;8.98;5.47;;;29.60;1.00;;;;;;5102916;27;20589;-75
2021/08/14 12:29:15;;;;;;;7.80;5.43;;;29.70;1.00;;;;;;5103594;27;20459;-75
2021/08/14 12:32:11;;;;;;;9.40;5.53;;;30.00;1.00;;;;;;5109016;27;20412;-75
2021/08/14 12:35:20;;;;;;;8.23;5.45;;;29.80;1.00;;;;;;5104417;27;20049;-75
2021/08/14 12:38:09;;;;;;;7.93;5.45;;;29.80;1.00;;;;;;5112091;27;20039;-76
2021/08/14 12:41:12;;;;;;;8.15;5.47;;;30.10;1.00;;;;;;5101994;27;20052;-75
2021/08/14 12:44:01;;;;;;;7.07;5.28;;;29.90;1.00;;;;;;5104234;27;20039;-75
2021/08/14 12:47:01;;;;;;;6.07;5.40;;;30.30;1.00;;;;;;5104112;27;20047;-75
2021/08/14 12:50:08;;;;;;;7.28;5.40;;;30.40;1.00;;;;;;5105750;27;20058;-75
2021/08/14 12:53:00;;;;;;;6.22;5.20;;;30.20;1.00;;;;;;5107664;27;20043;-75
2021/08/14 12:55:50;;;;;;;7.82;5.55;;;30.20;1.00;;;;;;5106093;27;20051;-75
2021/08/14 12:58:38;;;;;;;6.28;5.07;;;30.00;1.00;;;;;;5106345;27;20950;-75
2021/08/14 13:01:27;;;;;;;8.25;5.25;;;30.20;1.00;;;;;;5104601;27;20047;-75
2021/08/14 13:04:15;;;;;;;6.78;5.28;;;30.30;1.00;;;;;;5108338;27;20059;-75
2021/08/14 13:07:05;;;;;;;10.43;5.20;;;30.60;1.00;;;;;;5104829;27;20708;-75
2021/08/14 13:09:54;;;;;;;7.97;5.45;;;30.10;1.00;;;;;;5104311;27;21612;-75
2021/08/14 13:13:01;;;;;;;6.18;5.57;;;30.30;1.00;;;;;;5103161;27;20524;-74
2021/08/14 13:16:09;;;;;;;6.35;5.30;;;30.50;1.00;;;;;;5098909;27;20043;-74
2021/08/14 13:18:57;;;;;;;13.18;5.65;;;30.50;1.00;;;;;;5105409;27;20051;-74
2021/08/14 13:21:47;;;;;;;8.32;5.57;;;30.30;1.00;;;;;;5111178;27;20046;-73
2021/08/14 13:24:37;;;;;;;8.82;6.15;;;30.60;1.00;;;;;;5107040;27;20106;-74
2021/08/14 13:27:25;;;;;;;7.93;4.90;;;30.50;1.00;;;;;;5103377;27;20073;-74
2021/08/14 13:30:16;;;;;;;5.88;5.30;;;30.40;1.00;;;;;;5080972;27;20059;-74
2021/08/14 13:33:04;;;;;;;6.32;4.95;;;30.60;1.00;;;;;;5098016;27;20218;-74
2021/08/14 13:35:52;;;;;;;9.05;5.75;;;30.50;1.00;;;;;;5105335;27;20402;-74
2021/08/14 13:38:41;;;;;;;6.38;5.13;;;30.50;1.00;;;;;;5103597;27;20998;-74
2021/08/14 13:41:31;;;;;;;5.85;5.32;;;30.60;1.00;;;;;;5105419;27;20050;-74
2021/08/14 13:44:19;;;;;;;5.70;5.07;;;30.90;1.00;;;;;;5101642;27;20066;-74
2021/08/14 13:47:08;;;;;;;8.20;4.88;;;30.50;1.00;;;;;;5103009;27;20066;-75
2021/08/14 13:49:56;;;;;;;8.32;5.40;;;30.70;1.00;;;;;;5103647;27;20043;-75
2021/08/14 13:52:46;;;;;;;7.63;5.40;;;30.70;1.00;;;;;;5108057;27;20047;-75
2021/08/14 13:55:36;;;;;;;6.00;5.35;;;30.50;1.00;;;;;;5100953;27;20043;-75
2021/08/14 13:58:25;;;;;;;7.32;5.03;;;30.40;1.00;;;;;;5102782;27;20583;-74
2021/08/14 14:01:14;;;;;;;8.48;5.72;;;29.90;1.00;;;;;;5100795;27;20050;-74
2021/08/14 14:04:02;;;;;;;8.60;5.43;;;30.20;1.00;;;;;;5103837;27;20035;-74
2021/08/14 14:06:52;;;;;;;7.95;5.95;;;30.30;1.00;;;;;;5102821;27;20054;-74
2021/08/14 14:09:40;;;;;;;7.55;5.43;;;30.30;1.00;;;;;;5100961;27;20648;-74
2021/08/14 14:12:29;;;;;;;6.97;5.35;;;29.60;1.00;;;;;;5101987;27;20512;-74
2021/08/14 14:15:18;;;;;;;9.40;5.20;;;29.70;1.00;;;;;;5109991;27;20043;-74
2021/08/14 14:18:07;;;;;;;8.23;5.13;;;29.90;1.00;;;;;;5107827;27;20059;-73
2021/08/14 14:20:57;;;;;;;8.20;5.53;;;29.60;1.00;;;;;;5104017;27;20395;-74
2021/08/14 14:23:45;;;;;;;6.85;5.03;;;30.10;1.00;;;;;;5105385;27;20768;-74
2021/08/14 14:26:33;;;;;;;7.85;5.93;;;30.20;1.00;;;;;;5104989;27;20047;-74
2021/08/14 14:29:22;;;;;;;6.88;5.22;;;30.20;1.00;;;;;;5105655;27;20108;-74
2021/08/14 14:32:12;;;;;;;6.68;5.82;;;30.30;1.00;;;;;;5101494;27;20053;-74
2021/08/14 14:35:00;;;;;;;11.57;5.50;;;30.40;1.00;;;;;;5102813;27;20047;-74
2021/08/14 14:37:48;;;;;;;8.65;5.47;;;30.80;1.00;;;;;;5108470;27;20127;-75
2021/08/14 14:40:37;;;;;;;7.68;5.35;;;30.60;1.00;;;;;;5101617;28;20507;-74
2021/08/14 14:43:25;;;;;;;8.00;5.35;;;30.80;1.00;;;;;;5106364;27;20573;-74
2021/08/14 14:46:14;;;;;;;8.23;5.60;;;30.70;1.00;;;;;;5098655;28;20060;-74
2021/08/14 14:49:03;;;;;;;8.13;5.30;;;30.90;1.00;;;;;;5100077;28;20106;-74
2021/08/14 14:51:52;;;;;;;12.52;5.90;;;30.80;1.00;;;;;;5106505;28;20043;-75